sensor_id;sensor_type;location;lat;lon;timestamp;P1;durP1;ratioP1;P2;durP2;ratioP2
9821;SDS011;4950;46.042;14.472;2023-11-21T00:02:24;50.03;;;31.38;;
9821;SDS011;4950;46.042;14.472;2023-11-21T00:04:53;47.63;;;29.85;;
9821;SDS011;4950;46.042;14.472;2023-11-21T00:07:20;49.40;;;30.63;;
9821;SDS011;4950;46.042;14.472;2023-11-21T00:09:47;44.15;;;29.40;;
9821;SDS011;4950;46.042;14.472;2023-11-21T00:12:14;44.67;;;29.13;;
9821;SDS011;4950;46.042;14.472;2023-11-21T00:14:45;46.13;;;30.23;;
9821;SDS011;4950;46.042;14.472;2023-11-21T00:17:12;53.80;;;30.23;;
9821;SDS011;4950;46.042;14.472;2023-11-21T00:19:39;45.33;;;27.75;;
9821;SDS011;4950;46.042;14.472;2023-11-21T00:22:09;45.53;;;28.33;;
9821;SDS011;4950;46.042;14.472;2023-11-21T00:24:35;43.50;;;27.50;;
9821;SDS011;4950;46.042;14.472;2023-11-21T00:27:02;46.08;;;28.25;;
9821;SDS011;4950;46.042;14.472;2023-11-21T00:29:31;47.78;;;30.55;;
9821;SDS011;4950;46.042;14.472;2023-11-21T00:31:57;50.70;;;29.50;;
9821;SDS011;4950;46.042;14.472;2023-11-21T00:34:24;44.80;;;28.98;;
9821;SDS011;4950;46.042;14.472;2023-11-21T00:36:51;50.53;;;30.40;;
9821;SDS011;4950;46.042;14.472;2023-11-21T00:39:19;41.35;;;29.23;;
9821;SDS011;4950;46.042;14.472;2023-11-21T00:41:45;43.55;;;28.58;;
9821;SDS011;4950;46.042;14.472;2023-11-21T00:44:13;44.70;;;28.40;;
9821;SDS011;4950;46.042;14.472;2023-11-21T00:46:41;46.13;;;29.58;;
9821;SDS011;4950;46.042;14.472;2023-11-21T00:49:07;42.85;;;28.83;;
9821;SDS011;4950;46.042;14.472;2023-11-21T00:51:34;46.00;;;29.85;;
9821;SDS011;4950;46.042;14.472;2023-11-21T00:54:01;46.53;;;28.45;;
9821;SDS011;4950;46.042;14.472;2023-11-21T00:56:29;44.72;;;28.67;;
9821;SDS011;4950;46.042;14.472;2023-11-21T00:58:56;43.28;;;28.95;;
9821;SDS011;4950;46.042;14.472;2023-11-21T01:01:23;44.30;;;27.83;;
9821;SDS011;4950;46.042;14.472;2023-11-21T01:03:50;43.92;;;28.92;;
9821;SDS011;4950;46.042;14.472;2023-11-21T01:06:17;43.65;;;28.13;;
9821;SDS011;4950;46.042;14.472;2023-11-21T01:08:44;44.45;;;28.33;;
9821;SDS011;4950;46.042;14.472;2023-11-21T01:11:11;47.60;;;30.02;;
9821;SDS011;4950;46.042;14.472;2023-11-21T01:13:39;44.40;;;28.80;;
9821;SDS011;4950;46.042;14.472;2023-11-21T01:16:07;47.75;;;28.92;;
9821;SDS011;4950;46.042;14.472;2023-11-21T01:18:34;43.75;;;28.10;;
9821;SDS011;4950;46.042;14.472;2023-11-21T01:21:01;43.03;;;27.45;;
9821;SDS011;4950;46.042;14.472;2023-11-21T01:23:28;46.17;;;28.20;;
9821;SDS011;4950;46.042;14.472;2023-11-21T01:25:55;41.67;;;27.33;;
9821;SDS011;4950;46.042;14.472;2023-11-21T01:28:22;40.15;;;26.48;;
9821;SDS011;4950;46.042;14.472;2023-11-21T01:30:50;39.90;;;26.08;;
9821;SDS011;4950;46.042;14.472;2023-11-21T01:33:18;41.37;;;26.77;;
9821;SDS011;4950;46.042;14.472;2023-11-21T01:35:44;42.13;;;24.85;;
9821;SDS011;4950;46.042;14.472;2023-11-21T01:38:12;36.08;;;24.60;;
9821;SDS011;4950;46.042;14.472;2023-11-21T01:40:39;36.75;;;24.80;;
9821;SDS011;4950;46.042;14.472;2023-11-21T01:43:05;39.10;;;24.83;;
9821;SDS011;4950;46.042;14.472;2023-11-21T01:45:33;37.28;;;24.13;;
9821;SDS011;4950;46.042;14.472;2023-11-21T01:48:01;37.00;;;23.63;;
9821;SDS011;4950;46.042;14.472;2023-11-21T01:50:32;35.33;;;24.77;;
9821;SDS011;4950;46.042;14.472;2023-11-21T01:52:59;37.13;;;25.60;;
9821;SDS011;4950;46.042;14.472;2023-11-21T01:55:26;39.70;;;25.20;;
9821;SDS011;4950;46.042;14.472;2023-11-21T01:57:55;40.33;;;26.02;;
9821;SDS011;4950;46.042;14.472;2023-11-21T02:00:22;42.08;;;25.42;;
9821;SDS011;4950;46.042;14.472;2023-11-21T02:02:50;35.72;;;24.50;;
9821;SDS011;4950;46.042;14.472;2023-11-21T02:05:19;39.10;;;25.35;;
9821;SDS011;4950;46.042;14.472;2023-11-21T02:07:46;37.85;;;24.50;;
9821;SDS011;4950;46.042;14.472;2023-11-21T02:10:14;39.25;;;24.05;;
9821;SDS011;4950;46.042;14.472;2023-11-21T02:12:41;36.58;;;25.05;;
9821;SDS011;4950;46.042;14.472;2023-11-21T02:15:08;39.28;;;25.30;;
9821;SDS011;4950;46.042;14.472;2023-11-21T02:17:40;41.33;;;26.63;;
9821;SDS011;4950;46.042;14.472;2023-11-21T02:20:09;39.23;;;26.33;;
9821;SDS011;4950;46.042;14.472;2023-11-21T02:22:41;40.08;;;25.52;;
9821;SDS011;4950;46.042;14.472;2023-11-21T02:25:10;39.03;;;24.17;;
9821;SDS011;4950;46.042;14.472;2023-11-21T02:27:37;38.08;;;24.20;;
9821;SDS011;4950;46.042;14.472;2023-11-21T02:30:04;34.42;;;22.45;;
9821;SDS011;4950;46.042;14.472;2023-11-21T02:32:32;39.35;;;25.10;;
9821;SDS011;4950;46.042;14.472;2023-11-21T02:34:59;41.70;;;23.80;;
9821;SDS011;4950;46.042;14.472;2023-11-21T02:37:28;41.03;;;24.98;;
9821;SDS011;4950;46.042;14.472;2023-11-21T02:39:55;39.40;;;25.05;;
9821;SDS011;4950;46.042;14.472;2023-11-21T02:42:23;44.08;;;25.80;;
9821;SDS011;4950;46.042;14.472;2023-11-21T02:44:50;37.75;;;23.80;;
9821;SDS011;4950;46.042;14.472;2023-11-21T02:47:16;39.50;;;24.40;;
9821;SDS011;4950;46.042;14.472;2023-11-21T02:49:43;40.28;;;25.83;;
9821;SDS011;4950;46.042;14.472;2023-11-21T02:52:10;39.35;;;23.90;;
9821;SDS011;4950;46.042;14.472;2023-11-21T02:54:36;40.22;;;23.23;;
9821;SDS011;4950;46.042;14.472;2023-11-21T02:57:03;41.35;;;24.52;;
9821;SDS011;4950;46.042;14.472;2023-11-21T02:59:32;36.10;;;24.23;;
9821;SDS011;4950;46.042;14.472;2023-11-21T03:01:58;36.83;;;22.77;;
9821;SDS011;4950;46.042;14.472;2023-11-21T03:04:25;37.13;;;24.02;;
9821;SDS011;4950;46.042;14.472;2023-11-21T03:06:52;34.10;;;22.48;;
9821;SDS011;4950;46.042;14.472;2023-11-21T03:09:18;36.38;;;22.83;;
9821;SDS011;4950;46.042;14.472;2023-11-21T03:11:45;35.22;;;22.63;;
9821;SDS011;4950;46.042;14.472;2023-11-21T03:14:12;32.00;;;21.95;;
9821;SDS011;4950;46.042;14.472;2023-11-21T03:16:40;33.42;;;22.40;;
9821;SDS011;4950;46.042;14.472;2023-11-21T03:19:07;34.88;;;23.08;;
9821;SDS011;4950;46.042;14.472;2023-11-21T03:21:34;38.58;;;23.42;;
9821;SDS011;4950;46.042;14.472;2023-11-21T03:24:01;32.47;;;22.88;;
9821;SDS011;4950;46.042;14.472;2023-11-21T03:26:27;34.08;;;22.30;;
9821;SDS011;4950;46.042;14.472;2023-11-21T03:28:54;34.92;;;21.42;;
9821;SDS011;4950;46.042;14.472;2023-11-21T03:31:21;35.38;;;21.88;;
9821;SDS011;4950;46.042;14.472;2023-11-21T03:33:49;33.35;;;21.98;;
9821;SDS011;4950;46.042;14.472;2023-11-21T03:36:17;38.13;;;22.30;;
9821;SDS011;4950;46.042;14.472;2023-11-21T03:38:44;36.60;;;23.25;;
9821;SDS011;4950;46.042;14.472;2023-11-21T03:41:11;33.10;;;23.60;;
9821;SDS011;4950;46.042;14.472;2023-11-21T03:43:37;33.67;;;22.45;;
9821;SDS011;4950;46.042;14.472;2023-11-21T03:46:04;35.38;;;23.48;;
9821;SDS011;4950;46.042;14.472;2023-11-21T03:48:32;41.10;;;23.30;;
9821;SDS011;4950;46.042;14.472;2023-11-21T03:51:00;38.70;;;23.13;;
9821;SDS011;4950;46.042;14.472;2023-11-21T03:53:27;36.63;;;24.33;;
9821;SDS011;4950;46.042;14.472;2023-11-21T03:55:54;40.40;;;24.90;;
9821;SDS011;4950;46.042;14.472;2023-11-21T03:58:20;38.83;;;25.42;;
9821;SDS011;4950;46.042;14.472;2023-11-21T04:00:47;34.67;;;23.65;;
9821;SDS011;4950;46.042;14.472;2023-11-21T04:03:15;39.03;;;24.30;;
9821;SDS011;4950;46.042;14.472;2023-11-21T04:05:41;34.22;;;22.52;;
9821;SDS011;4950;46.042;14.472;2023-11-21T04:08:09;39.78;;;24.40;;
9821;SDS011;4950;46.042;14.472;2023-11-21T04:10:36;35.88;;;22.50;;
9821;SDS011;4950;46.042;14.472;2023-11-21T04:13:04;35.17;;;22.60;;
9821;SDS011;4950;46.042;14.472;2023-11-21T04:15:31;33.60;;;22.75;;
9821;SDS011;4950;46.042;14.472;2023-11-21T04:17:58;32.85;;;21.75;;
9821;SDS011;4950;46.042;14.472;2023-11-21T04:20:25;33.63;;;21.25;;
9821;SDS011;4950;46.042;14.472;2023-11-21T04:22:52;31.02;;;19.33;;
9821;SDS011;4950;46.042;14.472;2023-11-21T04:25:20;32.65;;;19.25;;
9821;SDS011;4950;46.042;14.472;2023-11-21T04:27:48;28.40;;;20.52;;
9821;SDS011;4950;46.042;14.472;2023-11-21T04:30:15;27.27;;;19.30;;
9821;SDS011;4950;46.042;14.472;2023-11-21T04:32:41;30.67;;;19.70;;
9821;SDS011;4950;46.042;14.472;2023-11-21T04:35:08;26.13;;;18.75;;
9821;SDS011;4950;46.042;14.472;2023-11-21T04:37:35;28.52;;;18.13;;
9821;SDS011;4950;46.042;14.472;2023-11-21T04:40:02;29.27;;;19.05;;
9821;SDS011;4950;46.042;14.472;2023-11-21T04:42:33;31.42;;;19.50;;
9821;SDS011;4950;46.042;14.472;2023-11-21T04:45:00;31.25;;;19.50;;
9821;SDS011;4950;46.042;14.472;2023-11-21T04:47:30;32.55;;;20.00;;
9821;SDS011;4950;46.042;14.472;2023-11-21T04:49:56;27.80;;;20.00;;
9821;SDS011;4950;46.042;14.472;2023-11-21T04:52:23;34.03;;;21.10;;
9821;SDS011;4950;46.042;14.472;2023-11-21T04:54:50;32.08;;;21.08;;
9821;SDS011;4950;46.042;14.472;2023-11-21T04:57:19;34.72;;;22.88;;
9821;SDS011;4950;46.042;14.472;2023-11-21T04:59:48;36.63;;;22.40;;
9821;SDS011;4950;46.042;14.472;2023-11-21T05:02:15;34.25;;;22.45;;
9821;SDS011;4950;46.042;14.472;2023-11-21T05:04:44;32.28;;;21.23;;
9821;SDS011;4950;46.042;14.472;2023-11-21T05:07:11;37.63;;;22.70;;
9821;SDS011;4950;46.042;14.472;2023-11-21T05:09:40;33.40;;;22.88;;
9821;SDS011;4950;46.042;14.472;2023-11-21T05:12:09;34.97;;;22.63;;
9821;SDS011;4950;46.042;14.472;2023-11-21T05:14:37;34.05;;;21.42;;
9821;SDS011;4950;46.042;14.472;2023-11-21T05:17:05;35.78;;;22.83;;
9821;SDS011;4950;46.042;14.472;2023-11-21T05:19:33;36.05;;;22.77;;
9821;SDS011;4950;46.042;14.472;2023-11-21T05:22:00;34.95;;;22.05;;
9821;SDS011;4950;46.042;14.472;2023-11-21T05:24:27;28.85;;;21.48;;
9821;SDS011;4950;46.042;14.472;2023-11-21T05:26:54;36.90;;;22.98;;
9821;SDS011;4950;46.042;14.472;2023-11-21T05:29:21;33.67;;;23.17;;
9821;SDS011;4950;46.042;14.472;2023-11-21T05:31:48;37.65;;;24.75;;
9821;SDS011;4950;46.042;14.472;2023-11-21T05:34:16;34.22;;;24.17;;
9821;SDS011;4950;46.042;14.472;2023-11-21T05:36:43;38.15;;;22.25;;
9821;SDS011;4950;46.042;14.472;2023-11-21T05:39:10;33.40;;;21.15;;
9821;SDS011;4950;46.042;14.472;2023-11-21T05:41:37;32.35;;;21.33;;
9821;SDS011;4950;46.042;14.472;2023-11-21T05:44:04;31.67;;;20.52;;
9821;SDS011;4950;46.042;14.472;2023-11-21T05:46:31;34.00;;;22.02;;
9821;SDS011;4950;46.042;14.472;2023-11-21T05:48:58;31.48;;;21.42;;
9821;SDS011;4950;46.042;14.472;2023-11-21T05:51:26;35.45;;;21.50;;
9821;SDS011;4950;46.042;14.472;2023-11-21T05:53:52;30.33;;;21.10;;
9821;SDS011;4950;46.042;14.472;2023-11-21T05:56:19;30.52;;;20.38;;
9821;SDS011;4950;46.042;14.472;2023-11-21T05:58:46;29.65;;;19.90;;
9821;SDS011;4950;46.042;14.472;2023-11-21T06:01:12;29.02;;;21.00;;
9821;SDS011;4950;46.042;14.472;2023-11-21T06:03:40;32.63;;;21.77;;
9821;SDS011;4950;46.042;14.472;2023-11-21T06:06:06;35.40;;;23.08;;
9821;SDS011;4950;46.042;14.472;2023-11-21T06:08:35;32.33;;;21.45;;
9821;SDS011;4950;46.042;14.472;2023-11-21T06:11:02;33.30;;;21.90;;
9821;SDS011;4950;46.042;14.472;2023-11-21T06:13:28;33.33;;;22.10;;
9821;SDS011;4950;46.042;14.472;2023-11-21T06:15:56;33.13;;;21.75;;
9821;SDS011;4950;46.042;14.472;2023-11-21T06:18:22;33.20;;;22.83;;
9821;SDS011;4950;46.042;14.472;2023-11-21T06:20:49;32.67;;;21.60;;
9821;SDS011;4950;46.042;14.472;2023-11-21T06:23:17;31.15;;;21.92;;
9821;SDS011;4950;46.042;14.472;2023-11-21T06:25:45;40.08;;;25.55;;
9821;SDS011;4950;46.042;14.472;2023-11-21T06:28:12;42.45;;;27.45;;
9821;SDS011;4950;46.042;14.472;2023-11-21T06:30:42;44.10;;;30.02;;
9821;SDS011;4950;46.042;14.472;2023-11-21T06:33:09;48.92;;;31.10;;
9821;SDS011;4950;46.042;14.472;2023-11-21T06:35:36;46.55;;;29.30;;
9821;SDS011;4950;46.042;14.472;2023-11-21T06:38:03;44.97;;;29.73;;
9821;SDS011;4950;46.042;14.472;2023-11-21T06:40:29;41.15;;;28.10;;
9821;SDS011;4950;46.042;14.472;2023-11-21T06:43:00;39.30;;;24.63;;
9821;SDS011;4950;46.042;14.472;2023-11-21T06:45:26;37.08;;;24.55;;
9821;SDS011;4950;46.042;14.472;2023-11-21T06:47:53;33.20;;;22.33;;
9821;SDS011;4950;46.042;14.472;2023-11-21T06:50:21;30.98;;;21.90;;
9821;SDS011;4950;46.042;14.472;2023-11-21T06:52:48;33.03;;;20.80;;
9821;SDS011;4950;46.042;14.472;2023-11-21T06:55:14;30.77;;;21.85;;
9821;SDS011;4950;46.042;14.472;2023-11-21T06:57:42;29.58;;;20.45;;
9821;SDS011;4950;46.042;14.472;2023-11-21T07:00:11;30.63;;;19.83;;
9821;SDS011;4950;46.042;14.472;2023-11-21T07:02:40;35.17;;;22.20;;
9821;SDS011;4950;46.042;14.472;2023-11-21T07:05:06;32.13;;;21.17;;
9821;SDS011;4950;46.042;14.472;2023-11-21T07:07:33;35.10;;;20.92;;
9821;SDS011;4950;46.042;14.472;2023-11-21T07:10:00;31.95;;;21.33;;
9821;SDS011;4950;46.042;14.472;2023-11-21T07:12:28;30.52;;;21.25;;
9821;SDS011;4950;46.042;14.472;2023-11-21T07:14:56;32.88;;;21.63;;
9821;SDS011;4950;46.042;14.472;2023-11-21T07:17:24;36.78;;;22.63;;
9821;SDS011;4950;46.042;14.472;2023-11-21T07:19:51;36.92;;;22.00;;
9821;SDS011;4950;46.042;14.472;2023-11-21T07:22:17;35.13;;;22.55;;
9821;SDS011;4950;46.042;14.472;2023-11-21T07:24:47;33.80;;;22.03;;
9821;SDS011;4950;46.042;14.472;2023-11-21T07:27:15;33.00;;;22.00;;
9821;SDS011;4950;46.042;14.472;2023-11-21T07:29:41;36.50;;;23.10;;
9821;SDS011;4950;46.042;14.472;2023-11-21T07:32:08;44.17;;;29.17;;
9821;SDS011;4950;46.042;14.472;2023-11-21T07:34:36;54.28;;;34.97;;
9821;SDS011;4950;46.042;14.472;2023-11-21T07:37:03;49.45;;;30.75;;
9821;SDS011;4950;46.042;14.472;2023-11-21T07:39:30;43.63;;;29.75;;
9821;SDS011;4950;46.042;14.472;2023-11-21T07:41:57;40.97;;;26.83;;
9821;SDS011;4950;46.042;14.472;2023-11-21T07:44:23;35.08;;;22.85;;
9821;SDS011;4950;46.042;14.472;2023-11-21T07:46:51;32.50;;;22.70;;
9821;SDS011;4950;46.042;14.472;2023-11-21T07:49:22;34.00;;;24.73;;
9821;SDS011;4950;46.042;14.472;2023-11-21T07:51:50;39.70;;;26.50;;
9821;SDS011;4950;46.042;14.472;2023-11-21T07:54:17;36.92;;;25.35;;
9821;SDS011;4950;46.042;14.472;2023-11-21T07:56:43;38.33;;;24.85;;
9821;SDS011;4950;46.042;14.472;2023-11-21T07:59:10;34.67;;;23.77;;
9821;SDS011;4950;46.042;14.472;2023-11-21T08:01:37;35.80;;;22.23;;
9821;SDS011;4950;46.042;14.472;2023-11-21T08:04:05;40.38;;;22.77;;
9821;SDS011;4950;46.042;14.472;2023-11-21T08:06:33;29.40;;;21.40;;
9821;SDS011;4950;46.042;14.472;2023-11-21T08:09:01;30.85;;;22.30;;
9821;SDS011;4950;46.042;14.472;2023-11-21T08:11:29;32.37;;;20.97;;
9821;SDS011;4950;46.042;14.472;2023-11-21T08:13:57;37.13;;;21.98;;
9821;SDS011;4950;46.042;14.472;2023-11-21T08:16:24;29.35;;;20.92;;
9821;SDS011;4950;46.042;14.472;2023-11-21T08:18:52;30.77;;;20.77;;
9821;SDS011;4950;46.042;14.472;2023-11-21T08:21:19;35.55;;;25.50;;
9821;SDS011;4950;46.042;14.472;2023-11-21T08:23:46;36.78;;;24.42;;
9821;SDS011;4950;46.042;14.472;2023-11-21T08:26:20;36.47;;;23.40;;
9821;SDS011;4950;46.042;14.472;2023-11-21T08:28:47;32.92;;;23.30;;
9821;SDS011;4950;46.042;14.472;2023-11-21T08:31:13;32.78;;;23.15;;
9821;SDS011;4950;46.042;14.472;2023-11-21T08:33:40;32.05;;;23.15;;
9821;SDS011;4950;46.042;14.472;2023-11-21T08:36:07;34.72;;;23.77;;
9821;SDS011;4950;46.042;14.472;2023-11-21T08:38:36;32.97;;;22.83;;
9821;SDS011;4950;46.042;14.472;2023-11-21T08:41:03;37.08;;;23.42;;
9821;SDS011;4950;46.042;14.472;2023-11-21T08:43:33;33.88;;;22.05;;
9821;SDS011;4950;46.042;14.472;2023-11-21T08:46:00;33.55;;;20.50;;
9821;SDS011;4950;46.042;14.472;2023-11-21T08:48:28;29.73;;;21.25;;
9821;SDS011;4950;46.042;14.472;2023-11-21T08:50:55;32.90;;;20.88;;
9821;SDS011;4950;46.042;14.472;2023-11-21T08:53:21;30.55;;;21.13;;
9821;SDS011;4950;46.042;14.472;2023-11-21T08:55:48;32.72;;;21.48;;
9821;SDS011;4950;46.042;14.472;2023-11-21T08:58:15;37.78;;;22.85;;
9821;SDS011;4950;46.042;14.472;2023-11-21T09:00:43;31.38;;;21.55;;
9821;SDS011;4950;46.042;14.472;2023-11-21T09:03:11;28.85;;;20.35;;
9821;SDS011;4950;46.042;14.472;2023-11-21T09:05:38;32.35;;;21.88;;
9821;SDS011;4950;46.042;14.472;2023-11-21T09:08:05;30.30;;;21.02;;
9821;SDS011;4950;46.042;14.472;2023-11-21T09:10:32;29.98;;;20.98;;
9821;SDS011;4950;46.042;14.472;2023-11-21T09:13:00;29.10;;;20.27;;
9821;SDS011;4950;46.042;14.472;2023-11-21T09:15:28;30.77;;;21.38;;
9821;SDS011;4950;46.042;14.472;2023-11-21T09:17:56;26.50;;;19.33;;
9821;SDS011;4950;46.042;14.472;2023-11-21T09:20:23;27.75;;;19.60;;
9821;SDS011;4950;46.042;14.472;2023-11-21T09:22:49;30.48;;;19.13;;
9821;SDS011;4950;46.042;14.472;2023-11-21T09:25:16;29.63;;;19.65;;
9821;SDS011;4950;46.042;14.472;2023-11-21T09:27:44;29.92;;;19.98;;
9821;SDS011;4950;46.042;14.472;2023-11-21T09:30:12;27.95;;;19.90;;
9821;SDS011;4950;46.042;14.472;2023-11-21T09:32:39;24.42;;;18.00;;
9821;SDS011;4950;46.042;14.472;2023-11-21T09:35:08;29.00;;;18.95;;
9821;SDS011;4950;46.042;14.472;2023-11-21T09:37:35;27.10;;;19.25;;
9821;SDS011;4950;46.042;14.472;2023-11-21T09:40:03;24.85;;;17.98;;
9821;SDS011;4950;46.042;14.472;2023-11-21T09:42:32;26.63;;;18.42;;
9821;SDS011;4950;46.042;14.472;2023-11-21T09:45:05;26.10;;;18.38;;
9821;SDS011;4950;46.042;14.472;2023-11-21T09:47:41;27.23;;;19.25;;
9821;SDS011;4950;46.042;14.472;2023-11-21T09:50:10;28.10;;;18.23;;
9821;SDS011;4950;46.042;14.472;2023-11-21T09:52:41;25.63;;;17.83;;
9821;SDS011;4950;46.042;14.472;2023-11-21T09:55:15;23.88;;;15.50;;
9821;SDS011;4950;46.042;14.472;2023-11-21T09:57:46;28.88;;;17.65;;
9821;SDS011;4950;46.042;14.472;2023-11-21T10:00:15;24.33;;;15.35;;
9821;SDS011;4950;46.042;14.472;2023-11-21T10:02:45;22.42;;;14.98;;
9821;SDS011;4950;46.042;14.472;2023-11-21T10:05:13;22.13;;;13.77;;
9821;SDS011;4950;46.042;14.472;2023-11-21T10:07:40;20.70;;;14.32;;
9821;SDS011;4950;46.042;14.472;2023-11-21T10:10:09;18.90;;;13.65;;
9821;SDS011;4950;46.042;14.472;2023-11-21T10:12:36;19.08;;;13.18;;
9821;SDS011;4950;46.042;14.472;2023-11-21T10:15:06;19.58;;;13.50;;
9821;SDS011;4950;46.042;14.472;2023-11-21T10:17:36;19.65;;;13.63;;
9821;SDS011;4950;46.042;14.472;2023-11-21T10:20:08;21.10;;;14.20;;
9821;SDS011;4950;46.042;14.472;2023-11-21T10:22:39;20.70;;;13.05;;
9821;SDS011;4950;46.042;14.472;2023-11-21T10:25:07;19.13;;;13.23;;
9821;SDS011;4950;46.042;14.472;2023-11-21T10:27:34;21.38;;;13.10;;
9821;SDS011;4950;46.042;14.472;2023-11-21T10:30:01;23.77;;;14.35;;
9821;SDS011;4950;46.042;14.472;2023-11-21T10:32:29;23.73;;;15.18;;
9821;SDS011;4950;46.042;14.472;2023-11-21T10:34:57;21.30;;;13.88;;
9821;SDS011;4950;46.042;14.472;2023-11-21T10:37:25;23.38;;;14.65;;
9821;SDS011;4950;46.042;14.472;2023-11-21T10:39:58;22.08;;;14.27;;
9821;SDS011;4950;46.042;14.472;2023-11-21T10:42:25;19.48;;;13.15;;
9821;SDS011;4950;46.042;14.472;2023-11-21T10:44:52;18.92;;;12.90;;
9821;SDS011;4950;46.042;14.472;2023-11-21T10:47:19;21.67;;;12.77;;
9821;SDS011;4950;46.042;14.472;2023-11-21T10:49:48;20.08;;;12.70;;
9821;SDS011;4950;46.042;14.472;2023-11-21T10:52:15;24.17;;;12.88;;
9821;SDS011;4950;46.042;14.472;2023-11-21T10:54:45;21.42;;;14.13;;
9821;SDS011;4950;46.042;14.472;2023-11-21T10:57:15;20.85;;;14.23;;
9821;SDS011;4950;46.042;14.472;2023-11-21T10:59:44;20.92;;;15.63;;
9821;SDS011;4950;46.042;14.472;2023-11-21T11:02:15;25.08;;;14.85;;
9821;SDS011;4950;46.042;14.472;2023-11-21T11:04:48;21.83;;;14.90;;
9821;SDS011;4950;46.042;14.472;2023-11-21T11:07:15;21.60;;;13.82;;
9821;SDS011;4950;46.042;14.472;2023-11-21T11:09:42;22.58;;;15.43;;
9821;SDS011;4950;46.042;14.472;2023-11-21T11:12:13;23.25;;;14.20;;
9821;SDS011;4950;46.042;14.472;2023-11-21T11:14:42;23.17;;;13.85;;
9821;SDS011;4950;46.042;14.472;2023-11-21T11:17:10;22.50;;;14.63;;
9821;SDS011;4950;46.042;14.472;2023-11-21T11:19:37;22.95;;;13.88;;
9821;SDS011;4950;46.042;14.472;2023-11-21T11:22:07;22.15;;;12.88;;
9821;SDS011;4950;46.042;14.472;2023-11-21T11:24:52;20.30;;;13.48;;
9821;SDS011;4950;46.042;14.472;2023-11-21T11:27:34;19.63;;;12.52;;
9821;SDS011;4950;46.042;14.472;2023-11-21T11:30:09;19.45;;;12.45;;
9821;SDS011;4950;46.042;14.472;2023-11-21T11:32:47;20.88;;;14.05;;
9821;SDS011;4950;46.042;14.472;2023-11-21T11:35:23;19.17;;;12.68;;
9821;SDS011;4950;46.042;14.472;2023-11-21T11:37:56;19.02;;;12.98;;
9821;SDS011;4950;46.042;14.472;2023-11-21T11:40:25;20.15;;;13.10;;
9821;SDS011;4950;46.042;14.472;2023-11-21T11:43:05;19.55;;;13.07;;
9821;SDS011;4950;46.042;14.472;2023-11-21T11:45:33;18.55;;;12.68;;
9821;SDS011;4950;46.042;14.472;2023-11-21T11:48:06;19.60;;;13.95;;
9821;SDS011;4950;46.042;14.472;2023-11-21T11:50:33;19.95;;;12.75;;
9821;SDS011;4950;46.042;14.472;2023-11-21T11:53:12;18.52;;;12.23;;
9821;SDS011;4950;46.042;14.472;2023-11-21T11:55:39;17.98;;;11.35;;
9821;SDS011;4950;46.042;14.472;2023-11-21T11:58:07;13.30;;;10.18;;
9821;SDS011;4950;46.042;14.472;2023-11-21T12:00:35;15.23;;;8.88;;
9821;SDS011;4950;46.042;14.472;2023-11-21T12:03:05;13.68;;;8.80;;
9821;SDS011;4950;46.042;14.472;2023-11-21T12:05:33;10.93;;;6.70;;
9821;SDS011;4950;46.042;14.472;2023-11-21T12:08:04;10.43;;;6.28;;
9821;SDS011;4950;46.042;14.472;2023-11-21T12:10:33;9.43;;;6.03;;
9821;SDS011;4950;46.042;14.472;2023-11-21T12:13:01;9.63;;;5.90;;
9821;SDS011;4950;46.042;14.472;2023-11-21T12:15:31;10.30;;;6.00;;
9821;SDS011;4950;46.042;14.472;2023-11-21T12:17:58;11.70;;;5.97;;
9821;SDS011;4950;46.042;14.472;2023-11-21T12:20:26;9.02;;;5.15;;
9821;SDS011;4950;46.042;14.472;2023-11-21T12:22:54;10.10;;;5.60;;
9821;SDS011;4950;46.042;14.472;2023-11-21T12:27:53;8.38;;;5.53;;
9821;SDS011;4950;46.042;14.472;2023-11-21T12:30:22;8.68;;;5.40;;
9821;SDS011;4950;46.042;14.472;2023-11-21T12:32:51;7.97;;;4.93;;
9821;SDS011;4950;46.042;14.472;2023-11-21T12:35:19;7.90;;;5.60;;
9821;SDS011;4950;46.042;14.472;2023-11-21T12:37:50;11.32;;;6.65;;
9821;SDS011;4950;46.042;14.472;2023-11-21T12:40:18;9.88;;;5.43;;
9821;SDS011;4950;46.042;14.472;2023-11-21T12:42:48;8.63;;;5.85;;
9821;SDS011;4950;46.042;14.472;2023-11-21T12:45:20;8.23;;;5.50;;
9821;SDS011;4950;46.042;14.472;2023-11-21T12:47:48;10.38;;;5.75;;
9821;SDS011;4950;46.042;14.472;2023-11-21T12:50:19;11.20;;;5.80;;
9821;SDS011;4950;46.042;14.472;2023-11-21T12:52:48;9.07;;;5.10;;
9821;SDS011;4950;46.042;14.472;2023-11-21T12:55:19;9.52;;;5.70;;
9821;SDS011;4950;46.042;14.472;2023-11-21T12:57:47;7.32;;;5.50;;
9821;SDS011;4950;46.042;14.472;2023-11-21T13:00:17;8.65;;;5.00;;
9821;SDS011;4950;46.042;14.472;2023-11-21T13:02:53;8.55;;;5.60;;
9821;SDS011;4950;46.042;14.472;2023-11-21T13:07:57;9.75;;;5.75;;
9821;SDS011;4950;46.042;14.472;2023-11-21T13:10:28;10.18;;;6.15;;
9821;SDS011;4950;46.042;14.472;2023-11-21T13:12:56;9.02;;;5.93;;
9821;SDS011;4950;46.042;14.472;2023-11-21T13:15:25;9.18;;;5.95;;
9821;SDS011;4950;46.042;14.472;2023-11-21T13:17:52;12.05;;;6.65;;
9821;SDS011;4950;46.042;14.472;2023-11-21T13:20:21;8.15;;;5.60;;
9821;SDS011;4950;46.042;14.472;2023-11-21T13:22:51;9.07;;;5.78;;
9821;SDS011;4950;46.042;14.472;2023-11-21T13:25:20;8.60;;;5.50;;
9821;SDS011;4950;46.042;14.472;2023-11-21T13:27:47;9.23;;;6.05;;
9821;SDS011;4950;46.042;14.472;2023-11-21T13:30:15;9.43;;;5.93;;
9821;SDS011;4950;46.042;14.472;2023-11-21T13:32:43;11.07;;;6.78;;
9821;SDS011;4950;46.042;14.472;2023-11-21T13:35:11;12.68;;;6.22;;
9821;SDS011;4950;46.042;14.472;2023-11-21T13:37:46;10.32;;;5.90;;
9821;SDS011;4950;46.042;14.472;2023-11-21T13:40:18;9.77;;;6.53;;
9821;SDS011;4950;46.042;14.472;2023-11-21T13:42:48;9.07;;;5.72;;
9821;SDS011;4950;46.042;14.472;2023-11-21T13:45:18;10.63;;;6.03;;
9821;SDS011;4950;46.042;14.472;2023-11-21T13:47:48;12.93;;;5.78;;
9821;SDS011;4950;46.042;14.472;2023-11-21T13:50:17;9.70;;;5.65;;
9821;SDS011;4950;46.042;14.472;2023-11-21T13:52:48;10.68;;;5.80;;
9821;SDS011;4950;46.042;14.472;2023-11-21T13:55:16;8.65;;;5.82;;
9821;SDS011;4950;46.042;14.472;2023-11-21T13:57:44;10.40;;;6.07;;
9821;SDS011;4950;46.042;14.472;2023-11-21T14:00:14;9.35;;;5.78;;
9821;SDS011;4950;46.042;14.472;2023-11-21T14:03:04;11.05;;;6.75;;
9821;SDS011;4950;46.042;14.472;2023-11-21T14:05:41;8.82;;;5.68;;
9821;SDS011;4950;46.042;14.472;2023-11-21T14:08:09;10.02;;;6.03;;
9821;SDS011;4950;46.042;14.472;2023-11-21T14:10:39;7.93;;;5.27;;
9821;SDS011;4950;46.042;14.472;2023-11-21T14:13:08;11.75;;;6.22;;
9821;SDS011;4950;46.042;14.472;2023-11-21T14:15:38;12.30;;;7.28;;
9821;SDS011;4950;46.042;14.472;2023-11-21T14:18:08;11.18;;;6.88;;
9821;SDS011;4950;46.042;14.472;2023-11-21T14:20:38;9.68;;;6.03;;
9821;SDS011;4950;46.042;14.472;2023-11-21T14:23:05;13.80;;;7.05;;
9821;SDS011;4950;46.042;14.472;2023-11-21T14:25:35;8.52;;;6.30;;
9821;SDS011;4950;46.042;14.472;2023-11-21T14:28:05;11.05;;;6.72;;
9821;SDS011;4950;46.042;14.472;2023-11-21T14:30:32;14.80;;;6.68;;
9821;SDS011;4950;46.042;14.472;2023-11-21T14:33:01;11.13;;;6.35;;
9821;SDS011;4950;46.042;14.472;2023-11-21T14:35:28;13.00;;;7.20;;
9821;SDS011;4950;46.042;14.472;2023-11-21T14:37:57;11.02;;;7.03;;
9821;SDS011;4950;46.042;14.472;2023-11-21T14:40:25;11.07;;;6.50;;
9821;SDS011;4950;46.042;14.472;2023-11-21T14:42:58;13.52;;;7.13;;
9821;SDS011;4950;46.042;14.472;2023-11-21T14:45:26;12.50;;;6.78;;
9821;SDS011;4950;46.042;14.472;2023-11-21T14:47:54;13.30;;;7.72;;
9821;SDS011;4950;46.042;14.472;2023-11-21T14:50:32;14.60;;;7.05;;